Time;durP1;ratioP1;P1;durP2;ratioP2;P2;SDS_P1;SDS_P2;PMS_P1;PMS_P2;Temp;Humidity;BMP_temperature;BMP_pressure;BME280_temperature;BME280_humidity;BME280_pressure;Samples;Min_cycle;Max_cycle;Signal;HPM_P1;HPM_P2
2022/07/02 00:00:04;;;;;;;1.80;0.60;;;18.60;99.90;;;;;;4145695;28;20096;-48
2022/07/02 00:02:26;;;;;;;0.50;0.50;;;18.60;99.90;;;;;;4145957;28;20100;-47
2022/07/02 00:04:57;;;;;;;2.47;0.60;;;18.60;99.90;;;;;;4145720;28;20122;-48
2022/07/02 00:07:18;;;;;;;2.20;0.80;;;18.60;99.90;;;;;;4149348;28;20084;-47
2022/07/02 00:09:40;;;;;;;0.93;0.60;;;18.60;99.90;;;;;;4148156;28;20111;-47
2022/07/02 00:12:01;;;;;;;0.60;0.60;;;18.50;99.90;;;;;;4150280;28;20104;-47
2022/07/02 00:14:22;;;;;;;1.23;0.65;;;18.40;99.90;;;;;;4146013;28;20153;-47
2022/07/02 00:16:46;;;;;;;0.98;0.98;;;18.30;99.90;;;;;;4145759;28;20088;-48
2022/07/02 00:19:07;;;;;;;7.28;0.63;;;18.30;99.90;;;;;;4146104;28;20056;-47
2022/07/02 00:21:28;;;;;;;1.27;0.80;;;18.20;99.90;;;;;;4145909;28;20060;-51
2022/07/02 00:23:49;;;;;;;1.98;0.65;;;18.00;99.90;;;;;;4145872;28;20096;-47
2022/07/02 00:26:32;;;;;;;1.80;0.65;;;17.90;99.90;;;;;;4145821;28;20049;-49
2022/07/02 00:29:20;;;;;;;1.55;0.70;;;17.90;99.90;;;;;;4144322;28;20424;-47
2022/07/02 00:31:41;;;;;;;1.20;0.60;;;17.90;99.90;;;;;;4145588;28;20073;-48
2022/07/02 00:34:03;;;;;;;1.50;0.70;;;18.10;99.90;;;;;;4145579;28;20049;-49
2022/07/02 00:36:25;;;;;;;1.05;0.73;;;18.20;99.90;;;;;;4145735;28;20096;-48
2022/07/02 00:38:46;;;;;;;1.95;0.60;;;18.20;99.90;;;;;;4145827;28;20228;-49
2022/07/02 00:41:06;;;;;;;1.00;0.65;;;18.00;99.90;;;;;;4145469;28;20451;-50
2022/07/02 00:43:27;;;;;;;1.92;0.68;;;18.00;99.90;;;;;;4148335;28;20045;-50
2022/07/02 00:45:49;;;;;;;2.50;0.70;;;17.90;99.90;;;;;;4145667;28;20072;-47
2022/07/02 00:48:12;;;;;;;0.60;0.60;;;17.80;99.90;;;;;;4145203;28;20126;-46
2022/07/02 00:50:33;;;;;;;1.65;0.70;;;17.70;99.90;;;;;;4148496;28;20512;-47
2022/07/02 00:52:54;;;;;;;2.85;0.82;;;17.40;99.90;;;;;;4145274;28;20056;-48
2022/07/02 00:55:15;;;;;;;0.70;0.70;;;17.40;99.90;;;;;;4145455;28;20052;-48
2022/07/02 00:57:35;;;;;;;1.67;0.70;;;17.40;99.90;;;;;;4144527;28;20093;-47
2022/07/02 00:59:56;;;;;;;2.67;1.00;;;17.30;99.90;;;;;;4144292;28;20060;-49
2022/07/02 01:02:21;;;;;;;0.80;0.80;;;17.20;99.90;;;;;;4145316;28;20052;-50
2022/07/02 01:04:45;;;;;;;0.65;0.60;;;17.30;99.90;;;;;;4146499;28;20133;-50
2022/07/02 01:07:08;;;;;;;1.17;0.70;;;17.40;99.90;;;;;;4150372;28;20516;-46
2022/07/02 01:12:24;;;;;;;2.25;0.70;;;16.90;99.90;;;;;;4157914;28;20057;-49
2022/07/02 01:14:46;;;;;;;0.85;0.85;;;16.60;99.90;;;;;;4156538;28;20417;-46
2022/07/02 01:17:06;;;;;;;2.90;1.27;;;16.50;99.90;;;;;;4150962;28;20055;-47
2022/07/02 01:19:27;;;;;;;1.25;0.70;;;16.40;99.90;;;;;;4153523;28;20112;-49
2022/07/02 01:22:18;;;;;;;1.70;0.70;;;16.40;99.90;;;;;;4148576;28;20048;-49
2022/07/02 01:24:40;;;;;;;1.67;0.80;;;16.30;99.90;;;;;;4148440;28;20053;-49
2022/07/02 01:27:01;;;;;;;0.70;0.70;;;16.20;99.90;;;;;;4148341;28;20065;-49
2022/07/02 01:29:22;;;;;;;1.13;0.90;;;16.20;99.90;;;;;;4148180;28;20068;-50
2022/07/02 01:31:43;;;;;;;2.78;0.80;;;16.10;99.90;;;;;;4147975;28;20376;-49
2022/07/02 01:34:03;;;;;;;1.05;0.80;;;16.10;99.90;;;;;;4148393;28;20056;-47
2022/07/02 01:36:24;;;;;;;2.33;0.80;;;16.10;99.90;;;;;;4148138;28;20068;-51
2022/07/02 01:38:45;;;;;;;2.45;0.70;;;16.10;99.90;;;;;;4147980;28;20053;-50
2022/07/02 01:41:40;;;;;;;1.63;0.80;;;16.10;99.90;;;;;;4148216;28;20296;-50
2022/07/02 01:43:53;;;;;;;1.27;0.73;;;16.20;99.90;;;;;;4155748;28;20080;-49
2022/07/02 01:46:13;;;;;;;1.08;0.60;;;16.30;99.90;;;;;;4147863;28;20124;-48
2022/07/02 01:48:34;;;;;;;2.95;0.70;;;16.40;99.90;;;;;;4147893;28;20123;-47
2022/07/02 01:50:55;;;;;;;1.98;0.70;;;16.40;99.90;;;;;;4155586;28;20081;-47
2022/07/02 01:53:16;;;;;;;1.77;0.75;;;16.30;99.90;;;;;;4148017;28;20133;-50
2022/07/02 01:55:36;;;;;;;3.22;1.40;;;16.20;99.90;;;;;;4147983;28;20076;-46
2022/07/02 01:57:57;;;;;;;1.33;0.80;;;16.30;99.90;;;;;;4147606;28;20575;-47
2022/07/02 02:00:18;;;;;;;0.95;0.80;;;16.30;99.90;;;;;;4148027;28;20061;-49
2022/07/02 02:02:39;;;;;;;1.10;0.70;;;16.30;99.90;;;;;;4147843;28;20057;-48
2022/07/02 02:05:00;;;;;;;0.80;0.80;;;16.30;99.90;;;;;;4147892;28;20132;-47
2022/07/02 02:07:21;;;;;;;3.45;0.75;;;16.20;99.90;;;;;;4151328;28;20047;-50
2022/07/02 02:09:42;;;;;;;2.35;0.80;;;16.30;99.90;;;;;;4159998;28;20103;-48
2022/07/02 02:12:02;;;;;;;1.40;0.70;;;16.30;99.90;;;;;;4159074;28;20520;-47
2022/07/02 02:14:23;;;;;;;4.20;0.75;;;16.30;99.90;;;;;;4147699;28;20100;-49
2022/07/02 02:16:44;;;;;;;3.05;0.90;;;16.30;99.90;;;;;;4146947;28;20371;-49
2022/07/02 02:19:06;;;;;;;4.35;0.80;;;16.20;99.90;;;;;;4147561;28;20169;-51
2022/07/02 02:21:28;;;;;;;1.13;0.80;;;16.10;99.90;;;;;;4147544;28;20121;-49
2022/07/02 02:23:49;;;;;;;1.48;0.75;;;15.90;99.90;;;;;;4147274;28;20129;-48
2022/07/02 02:26:10;;;;;;;1.85;0.80;;;16.00;99.90;;;;;;4147326;28;20108;-49
2022/07/02 02:28:30;;;;;;;2.70;0.77;;;16.10;99.90;;;;;;4147140;28;20112;-47
2022/07/02 02:30:51;;;;;;;1.45;0.70;;;16.20;99.90;;;;;;4147520;28;20080;-49
2022/07/02 02:33:12;;;;;;;6.50;1.10;;;16.20;99.90;;;;;;4146256;28;20053;-48
2022/07/02 02:35:33;;;;;;;3.55;0.80;;;16.00;99.90;;;;;;4147119;28;20084;-49
2022/07/02 02:37:54;;;;;;;2.55;0.80;;;15.70;99.90;;;;;;4146862;28;20397;-47
2022/07/02 02:40:14;;;;;;;0.93;0.90;;;15.60;99.90;;;;;;4147626;28;20133;-47
2022/07/02 02:42:36;;;;;;;0.82;0.80;;;15.50;99.90;;;;;;4146969;28;20060;-51
2022/07/02 02:44:56;;;;;;;0.85;0.85;;;15.60;99.90;;;;;;4147113;28;20056;-48
2022/07/02 02:47:17;;;;;;;1.65;0.90;;;15.60;99.90;;;;;;4147170;28;20648;-48
2022/07/02 02:49:38;;;;;;;2.15;0.90;;;15.40;99.90;;;;;;4151563;28;20536;-47
2022/07/02 02:51:58;;;;;;;1.15;0.80;;;15.20;99.90;;;;;;4152442;28;20060;-46
2022/07/02 02:54:19;;;;;;;0.85;0.85;;;15.10;99.90;;;;;;4146849;28;20060;-48
2022/07/02 02:56:39;;;;;;;1.95;0.82;;;15.20;99.90;;;;;;4146910;28;20069;-47
2022/07/02 02:59:00;;;;;;;0.80;0.80;;;15.20;99.90;;;;;;4146582;28;20572;-49
2022/07/02 03:01:21;;;;;;;2.15;0.80;;;15.20;99.90;;;;;;4146634;28;20045;-50
2022/07/02 03:03:41;;;;;;;0.85;0.85;;;15.20;99.90;;;;;;4146752;28;20049;-48
2022/07/02 03:06:02;;;;;;;0.90;0.90;;;15.10;99.90;;;;;;4147023;28;20049;-50
2022/07/02 03:08:23;;;;;;;0.90;0.90;;;15.00;99.90;;;;;;4158943;28;20060;-51
2022/07/02 03:10:44;;;;;;;1.35;0.80;;;15.00;99.90;;;;;;4155985;28;20052;-47
2022/07/02 03:13:04;;;;;;;1.05;0.70;;;15.00;99.90;;;;;;4162260;28;20052;-50
2022/07/02 03:15:25;;;;;;;2.00;1.67;;;15.00;99.90;;;;;;4146636;28;20084;-49
2022/07/02 03:17:46;;;;;;;1.98;0.95;;;15.00;99.90;;;;;;4154170;28;20068;-50
2022/07/02 03:20:07;;;;;;;3.95;1.10;;;15.00;99.90;;;;;;4156533;28;20096;-48
2022/07/02 03:22:28;;;;;;;1.38;0.90;;;14.80;99.90;;;;;;4146726;28;20053;-48
2022/07/02 03:24:49;;;;;;;2.35;0.80;;;14.90;99.90;;;;;;4146894;28;20061;-48
2022/07/02 03:27:09;;;;;;;1.55;0.95;;;15.00;99.90;;;;;;4145682;28;20108;-50
2022/07/02 03:29:30;;;;;;;2.25;1.00;;;15.00;99.90;;;;;;4146251;28;20072;-46
2022/07/02 03:31:50;;;;;;;1.42;0.77;;;15.00;99.90;;;;;;4146489;28;20057;-48
2022/07/02 03:34:11;;;;;;;2.72;0.90;;;14.90;99.90;;;;;;4146164;28;20057;-50
2022/07/02 03:36:31;;;;;;;1.67;0.90;;;14.80;99.90;;;;;;4146333;28;20052;-47
2022/07/02 03:38:52;;;;;;;0.80;0.80;;;14.70;99.90;;;;;;4146097;28;20479;-50
2022/07/02 03:41:13;;;;;;;2.75;1.00;;;14.80;99.90;;;;;;4146104;28;20056;-48
2022/07/02 03:43:34;;;;;;;3.42;0.73;;;14.70;99.90;;;;;;4152764;28;20583;-47
2022/07/02 03:45:55;;;;;;;0.80;0.80;;;14.70;99.90;;;;;;4154425;28;20084;-47
2022/07/02 03:48:16;;;;;;;0.88;0.88;;;14.50;99.90;;;;;;4145916;28;20100;-48
2022/07/02 03:50:40;;;;;;;0.80;0.80;;;14.40;99.90;;;;;;4158887;28;20579;-49
2022/07/02 03:53:01;;;;;;;2.38;0.80;;;14.30;99.90;;;;;;4147720;28;20136;-47
2022/07/02 03:55:22;;;;;;;1.05;0.90;;;14.30;99.90;;;;;;4145957;28;20049;-50
2022/07/02 03:57:42;;;;;;;1.67;1.35;;;14.30;99.90;;;;;;4146232;28;20515;-46
2022/07/02 04:00:04;;;;;;;0.88;0.80;;;14.20;99.90;;;;;;4146292;28;20108;-50
2022/07/02 04:02:25;;;;;;;1.25;0.90;;;14.20;99.90;;;;;;4145818;28;20112;-48
2022/07/02 04:04:45;;;;;;;1.30;0.80;;;14.30;99.90;;;;;;4146229;28;20049;-47
2022/07/02 04:07:06;;;;;;;0.80;0.80;;;14.40;99.90;;;;;;4147800;28;20483;-50
2022/07/02 04:09:27;;;;;;;6.63;1.10;;;14.40;99.90;;;;;;4145731;28;20536;-47
2022/07/02 04:11:48;;;;;;;1.52;0.90;;;14.30;99.90;;;;;;4157248;28;20099;-47
2022/07/02 04:14:09;;;;;;;1.38;0.90;;;14.30;99.90;;;;;;4157480;28;20048;-47
2022/07/02 04:16:30;;;;;;;1.20;1.10;;;14.30;99.90;;;;;;4145898;28;20052;-49
2022/07/02 04:18:51;;;;;;;0.80;0.80;;;14.20;99.90;;;;;;4159322;28;20131;-48
2022/07/02 04:21:32;;;;;;;1.88;0.95;;;14.20;99.90;;;;;;4149324;28;20131;-50
2022/07/02 04:23:52;;;;;;;1.15;0.90;;;14.20;99.90;;;;;;4146001;28;20108;-49
2022/07/02 04:26:13;;;;;;;2.47;1.00;;;14.10;99.90;;;;;;4145791;28;20107;-50
2022/07/02 04:28:33;;;;;;;1.85;0.90;;;14.00;99.90;;;;;;4145789;28;20429;-46
2022/07/02 04:30:54;;;;;;;1.27;1.27;;;14.10;99.90;;;;;;4145503;28;20053;-50
2022/07/02 04:33:15;;;;;;;0.90;0.90;;;14.20;99.90;;;;;;4145669;28;20181;-49
2022/07/02 04:35:35;;;;;;;1.92;0.90;;;14.30;99.90;;;;;;4146138;28;20072;-46
2022/07/02 04:37:56;;;;;;;0.98;0.93;;;14.40;99.90;;;;;;4145634;28;20048;-48
2022/07/02 04:40:17;;;;;;;1.10;0.98;;;14.30;99.90;;;;;;4149104;28;20117;-46
2022/07/02 04:42:38;;;;;;;1.38;0.90;;;14.30;99.90;;;;;;4149080;28;20060;-47
2022/07/02 04:44:59;;;;;;;1.08;0.90;;;14.30;99.90;;;;;;4148854;28;20117;-50
2022/07/02 04:47:19;;;;;;;1.80;0.93;;;14.20;99.90;;;;;;4149169;28;20053;-50
2022/07/02 04:49:40;;;;;;;1.00;1.00;;;14.10;99.90;;;;;;4153397;28;20048;-47
2022/07/02 04:52:01;;;;;;;0.90;0.90;;;14.20;99.90;;;;;;4163845;28;20052;-50
2022/07/02 04:54:21;;;;;;;0.80;0.80;;;14.30;99.90;;;;;;4148826;28;20154;-50
2022/07/02 04:56:42;;;;;;;0.80;0.80;;;14.30;99.90;;;;;;4148964;28;20107;-46
2022/07/02 04:59:02;;;;;;;3.33;1.30;;;14.30;99.90;;;;;;4151035;28;20104;-50
2022/07/02 05:01:24;;;;;;;1.65;1.10;;;14.30;99.90;;;;;;4165185;28;20087;-47
2022/07/02 05:03:44;;;;;;;2.25;1.23;;;14.40;99.90;;;;;;4148817;28;20052;-48
2022/07/02 05:06:05;;;;;;;0.90;0.90;;;14.50;99.90;;;;;;4148530;28;20313;-49
2022/07/02 05:08:28;;;;;;;1.17;0.90;;;14.50;99.90;;;;;;4156115;28;20049;-50
2022/07/02 05:10:48;;;;;;;0.80;0.80;;;14.50;99.90;;;;;;4150290;28;20056;-50
2022/07/02 05:13:09;;;;;;;1.67;0.90;;;14.40;99.90;;;;;;4148543;28;20104;-47
2022/07/02 05:15:35;;;;;;;3.22;0.80;;;14.40;99.90;;;;;;4148265;28;20104;-49
2022/07/02 05:17:56;;;;;;;0.80;0.80;;;14.50;99.90;;;;;;4153047;28;20556;-51
2022/07/02 05:20:17;;;;;;;3.05;0.85;;;14.50;99.90;;;;;;4148116;28;20081;-49
2022/07/02 05:22:37;;;;;;;1.50;0.90;;;14.50;99.90;;;;;;4148539;28;20315;-48
2022/07/02 05:24:58;;;;;;;0.80;0.80;;;14.50;99.90;;;;;;4148547;28;20045;-48
2022/07/02 05:27:19;;;;;;;1.38;0.70;;;14.60;99.90;;;;;;4148113;28;20413;-48
2022/07/02 05:29:40;;;;;;;5.65;1.60;;;14.70;99.90;;;;;;4148148;28;20125;-47
2022/07/02 05:32:07;;;;;;;1.30;0.65;;;14.70;99.90;;;;;;4148158;28;20052;-49
2022/07/02 05:34:27;;;;;;;1.08;0.80;;;14.70;99.90;;;;;;4148107;28;20040;-47
2022/07/02 05:36:48;;;;;;;0.90;0.90;;;14.80;99.90;;;;;;4148385;28;20053;-47
2022/07/02 05:39:08;;;;;;;2.75;0.75;;;14.90;99.90;;;;;;4148169;28;20695;-50
2022/07/02 05:41:29;;;;;;;0.73;0.73;;;15.00;99.90;;;;;;4148128;28;20052;-46
2022/07/02 05:43:50;;;;;;;1.40;0.80;;;15.10;99.90;;;;;;4149238;28;20107;-48
2022/07/02 05:46:10;;;;;;;0.70;0.70;;;15.20;99.90;;;;;;4148042;28;20057;-47
2022/07/02 05:48:31;;;;;;;1.08;0.70;;;15.30;99.90;;;;;;4152651;28;20133;-50
2022/07/02 05:50:52;;;;;;;1.58;0.70;;;15.50;99.90;;;;;;4149045;28;20053;-48
2022/07/02 05:53:13;;;;;;;3.42;0.60;;;15.50;99.90;;;;;;4147688;28;20516;-46
2022/07/02 05:55:34;;;;;;;2.20;0.75;;;15.60;99.90;;;;;;4152220;28;20129;-47
2022/07/02 05:57:54;;;;;;;2.75;0.70;;;15.90;99.90;;;;;;4148021;28;20120;-49
2022/07/02 06:00:15;;;;;;;1.35;0.80;;;16.20;99.90;;;;;;4147347;28;20052;-52
2022/07/02 06:02:36;;;;;;;1.70;0.60;;;16.60;99.90;;;;;;4147559;28;20516;-53
2022/07/02 06:04:57;;;;;;;1.20;0.60;;;17.00;99.90;;;;;;4148063;28;20177;-52
2022/07/02 06:09:57;;;;;;;0.50;0.50;;;17.70;99.90;;;;;;4151591;28;20053;-54
2022/07/02 06:12:18;;;;;;;0.60;0.60;;;18.20;99.90;;;;;;4147480;28;20619;-54
2022/07/02 06:14:38;;;;;;;0.50;0.50;;;18.60;99.90;;;;;;4151924;28;20459;-52
2022/07/02 06:16:59;;;;;;;1.25;0.60;;;18.90;99.90;;;;;;4157148;28;20060;-54
2022/07/02 06:19:20;;;;;;;0.60;0.52;;;19.20;99.90;;;;;;4152276;28;20052;-53
2022/07/02 06:21:41;;;;;;;1.10;0.50;;;19.50;99.90;;;;;;4147492;28;20096;-54
2022/07/02 06:24:02;;;;;;;0.70;0.60;;;19.70;99.90;;;;;;4147486;28;20505;-54
2022/07/02 06:26:22;;;;;;;2.33;0.50;;;20.00;99.90;;;;;;4147178;28;20092;-54
2022/07/02 06:28:43;;;;;;;2.88;0.47;;;20.30;99.90;;;;;;4149105;28;20064;-54
2022/07/02 06:31:04;;;;;;;0.43;0.43;;;20.60;99.90;;;;;;4151303;28;20052;-54
2022/07/02 06:33:24;;;;;;;1.00;0.60;;;20.80;99.90;;;;;;4147345;28;20433;-53
2022/07/02 06:35:45;;;;;;;0.65;0.50;;;21.10;99.90;;;;;;4146833;28;20056;-53
2022/07/02 06:38:06;;;;;;;1.27;0.50;;;21.30;99.90;;;;;;4147096;28;20126;-54
2022/07/02 06:40:27;;;;;;;1.00;0.50;;;21.50;99.90;;;;;;4147282;28;20056;-55
2022/07/02 06:42:47;;;;;;;0.70;0.50;;;21.60;99.30;;;;;;4152190;28;20052;-55
2022/07/02 06:45:09;;;;;;;1.40;0.40;;;21.90;99.00;;;;;;4152587;28;20049;-53
2022/07/02 06:47:31;;;;;;;0.40;0.40;;;22.20;98.80;;;;;;4149489;28;20100;-54
2022/07/02 06:49:54;;;;;;;0.73;0.50;;;22.60;99.10;;;;;;4152666;28;20053;-54
2022/07/02 06:52:16;;;;;;;1.13;0.40;;;23.00;98.90;;;;;;4154030;28;20076;-55
2022/07/02 06:54:38;;;;;;;0.40;0.40;;;23.30;98.00;;;;;;4152013;28;20096;-55
2022/07/02 06:56:59;;;;;;;5.15;1.15;;;23.30;96.90;;;;;;4148712;28;20053;-55
2022/07/02 06:59:19;;;;;;;0.52;0.40;;;23.30;96.80;;;;;;4146582;28;20100;-54
2022/07/02 07:01:40;;;;;;;0.63;0.43;;;23.60;96.40;;;;;;4146308;28;20052;-55
2022/07/02 07:04:21;;;;;;;1.98;0.40;;;23.70;96.00;;;;;;4146819;28;20137;-53
2022/07/02 07:06:43;;;;;;;1.75;0.40;;;24.30;96.40;;;;;;4153064;28;20092;-55
2022/07/02 07:09:04;;;;;;;3.17;0.40;;;24.50;95.00;;;;;;4159753;28;20092;-54
2022/07/02 07:11:24;;;;;;;2.05;0.40;;;24.80;93.30;;;;;;4153161;28;20402;-55
2022/07/02 07:13:45;;;;;;;3.03;0.40;;;24.90;93.40;;;;;;4150189;28;20137;-55
2022/07/02 07:16:06;;;;;;;2.17;0.55;;;25.30;93.20;;;;;;4151845;28;20049;-55
2022/07/02 07:18:27;;;;;;;0.45;0.32;;;25.30;91.70;;;;;;4152646;28;20045;-54
2022/07/02 07:20:49;;;;;;;3.33;0.40;;;25.60;91.10;;;;;;4151107;28;20498;-56
2022/07/02 07:23:10;;;;;;;0.40;0.40;;;26.00;91.00;;;;;;4154155;28;21498;-54
2022/07/02 07:25:32;;;;;;;3.33;0.40;;;26.40;91.00;;;;;;4149266;28;20068;-55
2022/07/02 07:27:53;;;;;;;0.40;0.40;;;26.70;91.00;;;;;;4146254;28;20049;-55
2022/07/02 07:30:14;;;;;;;1.98;0.30;;;26.90;89.10;;;;;;4146305;28;20108;-55
2022/07/02 07:32:34;;;;;;;6.03;0.43;;;27.10;87.10;;;;;;4146261;28;20087;-54
2022/07/02 07:34:56;;;;;;;1.45;0.30;;;27.10;85.30;;;;;;4146467;28;20104;-53
2022/07/02 07:37:16;;;;;;;1.20;0.30;;;26.80;86.30;;;;;;4148515;28;20137;-55
2022/07/02 07:39:37;;;;;;;2.72;0.30;;;27.00;86.00;;;;;;4145750;28;20414;-56
2022/07/02 07:41:57;;;;;;;1.67;0.40;;;27.30;87.50;;;;;;4147362;28;20410;-51
2022/07/02 07:44:18;;;;;;;1.27;0.40;;;27.60;87.40;;;;;;4156925;28;20401;-54
2022/07/02 07:46:39;;;;;;;5.40;0.55;;;27.70;85.60;;;;;;4159921;28;20637;-55
2022/07/02 07:49:00;;;;;;;3.50;0.40;;;27.60;84.60;;;;;;4158259;28;20055;-55
2022/07/02 07:51:20;;;;;;;8.65;0.95;;;27.80;83.10;;;;;;4145949;28;20056;-54
2022/07/02 07:53:45;;;;;;;1.27;0.30;;;28.10;86.20;;;;;;4145908;28;20057;-55
2022/07/02 07:56:05;;;;;;;1.33;0.40;;;28.60;84.70;;;;;;4146106;28;20853;-53
2022/07/02 07:58:26;;;;;;;2.22;0.30;;;28.80;84.00;;;;;;4145684;28;20053;-55
2022/07/02 08:00:47;;;;;;;1.27;0.32;;;28.90;83.50;;;;;;4146050;28;20129;-54
2022/07/02 08:03:08;;;;;;;1.48;0.30;;;29.00;80.90;;;;;;4146102;28;20061;-53
2022/07/02 08:05:28;;;;;;;1.13;0.30;;;29.10;82.30;;;;;;4146123;28;20108;-54
2022/07/02 08:07:49;;;;;;;0.30;0.30;;;29.10;80.30;;;;;;4153230;28;20063;-54
2022/07/02 08:10:10;;;;;;;1.23;0.30;;;29.50;80.40;;;;;;4152259;28;20104;-54
2022/07/02 08:12:31;;;;;;;1.35;0.30;;;29.40;79.30;;;;;;4161683;28;20581;-51
2022/07/02 08:14:52;;;;;;;2.15;0.30;;;29.60;79.30;;;;;;4150591;28;20049;-50
2022/07/02 08:17:12;;;;;;;1.33;0.30;;;29.70;79.20;;;;;;4153682;28;20052;-49
2022/07/02 08:19:33;;;;;;;1.55;0.30;;;30.10;78.70;;;;;;4155759;28;20053;-51
2022/07/02 08:21:54;;;;;;;0.75;0.30;;;30.20;75.00;;;;;;4145829;28;20461;-51
2022/07/02 08:24:15;;;;;;;1.90;0.23;;;30.60;76.20;;;;;;4150868;28;20421;-49
2022/07/02 08:26:35;;;;;;;2.05;0.30;;;30.60;72.20;;;;;;4145545;28;20406;-50
2022/07/02 08:28:56;;;;;;;2.00;0.30;;;30.90;72.60;;;;;;4145558;28;20076;-50
2022/07/02 08:31:17;;;;;;;1.23;0.40;;;31.00;74.20;;;;;;4145677;28;20116;-50
2022/07/02 08:33:38;;;;;;;1.85;0.30;;;31.20;73.90;;;;;;4145486;28;20053;-51
2022/07/02 08:35:59;;;;;;;0.20;0.20;;;31.50;73.10;;;;;;4145658;28;20100;-51
2022/07/02 08:38:20;;;;;;;0.68;0.20;;;31.40;70.80;;;;;;4150846;28;20434;-51
2022/07/02 08:40:44;;;;;;;1.35;0.22;;;31.50;72.90;;;;;;4144469;28;20155;-51
2022/07/02 08:43:06;;;;;;;1.65;0.30;;;31.60;69.80;;;;;;4148402;28;20096;-51
2022/07/02 08:45:31;;;;;;;4.40;0.20;;;31.60;73.30;;;;;;4155700;28;20481;-51
2022/07/02 08:47:53;;;;;;;1.42;0.30;;;32.10;69.20;;;;;;4145680;28;20126;-51
2022/07/02 08:50:16;;;;;;;;;;;32.20;67.10;;;;;;4155555;28;20169;-51
2022/07/02 08:52:40;;;;;;;4.22;0.28;;;32.30;68.40;;;;;;4149318;28;20317;-51
2022/07/02 08:55:05;;;;;;;2.60;0.30;;;32.60;70.40;;;;;;4145375;28;20057;-50
2022/07/02 08:57:30;;;;;;;0.30;0.10;;;33.20;70.90;;;;;;4148674;28;20084;-52
2022/07/02 08:59:51;;;;;;;0.30;0.28;;;33.40;67.00;;;;;;4151021;28;20052;-51
2022/07/02 09:02:13;;;;;;;1.73;0.20;;;33.40;65.60;;;;;;4152228;28;20053;-50
2022/07/02 09:04:36;;;;;;;1.90;0.20;;;33.40;69.10;;;;;;4146244;28;20567;-49
2022/07/02 09:06:57;;;;;;;0.30;0.20;;;33.60;68.70;;;;;;4145950;28;20377;-52
2022/07/02 09:09:18;;;;;;;1.13;0.32;;;33.90;68.30;;;;;;4147204;28;20060;-52
2022/07/02 09:11:39;;;;;;;1.45;0.40;;;33.90;69.20;;;;;;4155885;28;20060;-51
2022/07/02 09:14:00;;;;;;;0.40;0.20;;;33.80;68.40;;;;;;4156360;28;20104;-52
2022/07/02 09:16:21;;;;;;;1.80;0.20;;;33.80;66.60;;;;;;4145715;28;20063;-51
2022/07/02 09:18:42;;;;;;;1.10;0.20;;;33.90;69.20;;;;;;4147972;28;20053;-51
2022/07/02 09:21:03;;;;;;;0.60;0.20;;;34.40;65.50;;;;;;4145097;28;20052;-51
2022/07/02 09:23:24;;;;;;;2.50;0.20;;;34.10;70.00;;;;;;4145374;28;20346;-51
2022/07/02 09:25:45;;;;;;;2.90;0.57;;;34.60;67.90;;;;;;4148489;28;20186;-51
2022/07/02 09:28:06;;;;;;;0.20;0.20;;;34.90;67.20;;;;;;4148065;28;20532;-53
2022/07/02 09:30:30;;;;;;;0.20;0.20;;;35.40;65.30;;;;;;4148104;28;20129;-51
2022/07/02 09:33:28;;;;;;;2.15;0.20;;;35.20;64.40;;;;;;4148204;28;20063;-53
2022/07/02 09:35:31;;;;;;;0.60;0.20;;;35.10;65.30;;;;;;4148213;28;20145;-50
2022/07/02 09:37:52;;;;;;;1.45;0.20;;;34.90;66.80;;;;;;4148047;28;20076;-52
2022/07/02 09:40:14;;;;;;;0.28;0.10;;;34.90;63.90;;;;;;4157402;28;20125;-50
2022/07/02 09:42:35;;;;;;;0.20;0.20;;;34.70;61.00;;;;;;4160272;28;20576;-50
2022/07/02 09:44:57;;;;;;;0.20;0.20;;;34.60;63.90;;;;;;4148234;28;20405;-51
2022/07/02 09:47:28;;;;;;;0.20;0.20;;;34.20;61.90;;;;;;4148059;28;20049;-51
2022/07/02 09:49:50;;;;;;;0.15;0.15;;;34.50;61.00;;;;;;4154093;28;20535;-51
2022/07/02 09:52:15;;;;;;;0.32;0.28;;;34.90;62.30;;;;;;4160334;28;20056;-51
2022/07/02 09:54:35;;;;;;;0.45;0.20;;;35.30;61.90;;;;;;4148087;28;20112;-51
2022/07/02 09:56:58;;;;;;;0.88;0.20;;;35.90;60.00;;;;;;4147798;28;20125;-52
2022/07/02 09:59:19;;;;;;;0.22;0.20;;;35.90;61.10;;;;;;4147887;28;20133;-51
2022/07/02 10:01:43;;;;;;;0.20;0.10;;;36.00;62.90;;;;;;4148028;28;20357;-51
2022/07/02 10:04:04;;;;;;;0.40;0.20;;;36.30;62.20;;;;;;4147859;28;20161;-51
2022/07/02 10:06:25;;;;;;;0.20;0.20;;;36.70;62.60;;;;;;4147870;28;20089;-51
2022/07/02 10:08:48;;;;;;;0.28;0.20;;;36.40;60.30;;;;;;4162010;28;20056;-50
2022/07/02 10:11:13;;;;;;;0.75;0.20;;;36.00;63.40;;;;;;4161499;28;20052;-52
2022/07/02 10:13:36;;;;;;;0.30;0.20;;;36.40;63.20;;;;;;4147885;28;20177;-53
2022/07/02 10:16:03;;;;;;;0.68;0.20;;;36.50;59.90;;;;;;4147711;28;20084;-52
2022/07/02 10:18:24;;;;;;;0.73;0.20;;;36.50;61.40;;;;;;4150863;28;20049;-51
2022/07/02 10:20:45;;;;;;;0.50;0.20;;;36.00;58.30;;;;;;4147213;28;20065;-51
2022/07/02 10:23:06;;;;;;;0.20;0.20;;;35.90;60.80;;;;;;4147608;28;20052;-51
2022/07/02 10:25:26;;;;;;;0.55;0.20;;;35.70;58.60;;;;;;4147434;28;20143;-52
2022/07/02 10:27:48;;;;;;;1.52;0.20;;;35.90;61.60;;;;;;4147138;28;20088;-52
2022/07/02 10:30:10;;;;;;;1.20;0.20;;;35.80;61.00;;;;;;4147158;28;20056;-52
2022/07/02 10:32:54;;;;;;;1.05;0.10;;;35.80;59.20;;;;;;4147653;28;20068;-50
2022/07/02 10:35:16;;;;;;;0.60;0.20;;;36.10;60.50;;;;;;4147286;28;20437;-51
2022/07/02 10:37:40;;;;;;;;;;;35.80;58.10;;;;;;4148553;28;20060;-51
2022/07/02 10:40:04;;;;;;;0.35;0.20;;;35.50;61.50;;;;;;4147220;28;19975;-51
2022/07/02 10:42:45;;;;;;;1.50;0.20;;;35.70;61.20;;;;;;4147391;28;20049;-52
2022/07/02 10:45:16;;;;;;;0.20;0.20;;;36.10;64.20;;;;;;4151155;28;20065;-51
2022/07/02 10:47:51;;;;;;;0.20;0.20;;;35.20;59.20;;;;;;4146858;28;20524;-50
2022/07/02 10:50:12;;;;;;;0.40;0.10;;;34.90;61.90;;;;;;4146813;28;20103;-51
2022/07/02 10:52:47;;;;;;;0.30;0.20;;;35.60;59.50;;;;;;4147002;28;20060;-51
2022/07/02 10:55:07;;;;;;;0.30;0.20;;;35.80;60.20;;;;;;4151647;28;20094;-51
2022/07/02 10:57:28;;;;;;;1.08;0.20;;;35.30;63.40;;;;;;4155279;28;20056;-51
2022/07/02 10:59:49;;;;;;;1.48;0.30;;;35.80;68.80;;;;;;4153531;28;20401;-51
2022/07/02 11:02:14;;;;;;;2.50;0.20;;;36.50;63.90;;;;;;4158787;28;20053;-49
2022/07/02 11:04:36;;;;;;;1.70;0.30;;;36.40;61.20;;;;;;4159722;28;20458;-51
2022/07/02 11:07:23;;;;;;;0.30;0.20;;;36.00;64.70;;;;;;4149402;28;20048;-50
2022/07/02 11:09:57;;;;;;;3.03;0.30;;;36.70;64.80;;;;;;4148275;28;20109;-51
2022/07/02 11:12:26;;;;;;;1.55;0.20;;;36.70;63.70;;;;;;4153338;28;20112;-50
2022/07/02 11:14:55;;;;;;;1.05;0.20;;;36.70;64.40;;;;;;4156714;28;20532;-51
2022/07/02 11:17:38;;;;;;;0.20;0.20;;;35.90;64.40;;;;;;4153979;28;20064;-48
2022/07/02 11:19:58;;;;;;;0.28;0.20;;;35.80;65.10;;;;;;4148561;28;20112;-52
2022/07/02 11:22:19;;;;;;;2.60;0.20;;;35.60;65.70;;;;;;4145544;28;20141;-47
2022/07/02 11:24:43;;;;;;;2.67;0.20;;;36.00;65.00;;;;;;4146492;28;20128;-50
2022/07/02 11:27:03;;;;;;;3.15;0.40;;;35.80;64.50;;;;;;4150368;28;20092;-51
2022/07/02 11:29:24;;;;;;;0.95;0.20;;;36.30;67.00;;;;;;4158133;28;20080;-51
2022/07/02 11:31:49;;;;;;;1.55;0.22;;;35.80;63.20;;;;;;4152863;28;20109;-50
2022/07/02 11:34:10;;;;;;;0.88;0.22;;;36.00;65.50;;;;;;4156025;28;20055;-48
2022/07/02 11:36:31;;;;;;;0.55;0.20;;;35.80;66.90;;;;;;4147838;28;20064;-52
2022/07/02 11:38:52;;;;;;;2.10;0.30;;;35.80;66.60;;;;;;4145832;28;20060;-49
2022/07/02 11:41:28;;;;;;;3.55;0.40;;;35.70;64.00;;;;;;4145716;28;20052;-49
2022/07/02 11:43:52;;;;;;;2.65;0.35;;;35.80;62.90;;;;;;4150965;28;20104;-51
2022/07/02 11:46:13;;;;;;;5.18;0.30;;;36.00;66.00;;;;;;4146855;28;20052;-49
2022/07/02 11:48:34;;;;;;;2.05;0.20;;;36.10;63.60;;;;;;4147457;28;20060;-51
2022/07/02 11:50:59;;;;;;;1.70;0.20;;;35.90;63.70;;;;;;4152202;28;20060;-50
2022/07/02 11:53:27;;;;;;;0.30;0.20;;;36.30;66.60;;;;;;4157414;28;20133;-52
2022/07/02 11:55:47;;;;;;;0.40;0.30;;;36.40;64.50;;;;;;4150209;28;20524;-49
2022/07/02 11:58:08;;;;;;;1.48;0.25;;;36.50;66.00;;;;;;4158009;28;20052;-50
2022/07/02 12:00:32;;;;;;;1.00;0.28;;;36.00;63.20;;;;;;4154935;28;20122;-49
2022/07/02 12:02:54;;;;;;;0.20;0.20;;;36.20;65.80;;;;;;4154441;28;20066;-51
2022/07/02 12:05:19;;;;;;;0.30;0.20;;;36.00;63.50;;;;;;4145902;28;20056;-51
2022/07/02 12:07:42;;;;;;;1.70;0.30;;;36.00;63.10;;;;;;4152130;28;20083;-51
2022/07/02 12:10:03;;;;;;;0.90;0.20;;;36.30;63.00;;;;;;4152416;28;20177;-52
2022/07/02 12:12:24;;;;;;;1.53;0.30;;;36.50;65.40;;;;;;4158542;28;20052;-51
2022/07/02 12:14:50;;;;;;;1.27;0.40;;;36.70;62.90;;;;;;4148298;28;20056;-50
2022/07/02 12:17:12;;;;;;;1.27;0.20;;;36.40;63.20;;;;;;4150334;28;20048;-51
2022/07/02 12:19:33;;;;;;;0.20;0.20;;;36.10;64.00;;;;;;4145385;28;20151;-49
2022/07/02 12:21:54;;;;;;;0.80;0.20;;;36.40;62.00;;;;;;4145856;28;20044;-51
2022/07/02 12:24:22;;;;;;;0.60;0.27;;;36.00;65.80;;;;;;4145701;28;20437;-50
2022/07/02 12:26:44;;;;;;;1.55;0.20;;;35.90;61.70;;;;;;4151241;28;20303;-50